createdAt,value
2022-08-26T03:35:26.358Z,21.53
2022-08-26T05:24:49.679Z,20.79
2022-08-26T05:27:53.265Z,20.76
2022-08-26T05:31:08.372Z,20.77
2022-08-26T05:34:30.363Z,20.76
2022-08-26T05:44:55.605Z,20.71
2022-08-26T06:02:18.889Z,20.66
2022-08-26T06:05:06.452Z,20.65
2022-08-26T06:08:14.258Z,20.64
2022-08-26T06:11:01.700Z,20.63
2022-08-26T06:13:48.449Z,20.63
2022-08-26T06:16:36.279Z,20.61
2022-08-26T07:30:14.907Z,21.28
2022-08-26T07:33:03.197Z,21.33
2022-08-26T07:35:51.688Z,21.37
2022-08-26T07:38:38.971Z,21.44
2022-08-26T07:41:25.793Z,21.47
2022-08-26T07:44:13.397Z,21.53
2022-08-26T07:47:00.100Z,21.59
2022-08-26T07:49:46.903Z,21.69
2022-08-26T07:52:39.375Z,21.79
2022-08-26T07:55:27.491Z,21.91
2022-08-26T07:58:15.709Z,22.02
2022-08-26T08:01:02.470Z,22.13
2022-08-26T08:03:52.110Z,22.23
2022-08-26T08:06:44.703Z,22.31
2022-08-26T08:09:31.449Z,22.40
2022-08-26T08:12:20.230Z,22.49
2022-08-26T08:15:07.674Z,22.63
2022-08-26T08:17:56.573Z,22.81
2022-08-26T08:21:04.584Z,22.97
2022-08-26T08:24:05.853Z,23.17
2022-08-26T08:30:22.799Z,23.58
2022-08-26T08:33:19.135Z,23.67
2022-08-26T08:36:06.056Z,23.74
2022-08-26T08:38:56.022Z,23.80
2022-08-26T08:41:53.251Z,23.87
2022-08-26T08:44:41.025Z,24.01
2022-08-26T08:47:36.367Z,24.14
2022-08-26T08:50:22.996Z,24.23
2022-08-26T08:53:18.237Z,24.32
2022-08-26T08:56:07.645Z,24.37
2022-08-26T08:59:09.706Z,24.46
2022-08-26T09:02:17.297Z,24.46
2022-08-26T09:05:07.226Z,24.48
2022-08-26T09:08:06.469Z,24.60
2022-08-26T09:10:54.535Z,24.70
2022-08-26T09:13:44.047Z,24.79
2022-08-26T09:16:34.050Z,25.04
2022-08-26T09:19:24.272Z,25.35
2022-08-26T09:22:11.227Z,25.60
2022-08-26T09:24:58.095Z,25.74
2022-08-26T09:27:50.488Z,25.76
2022-08-26T09:30:37.442Z,25.75
2022-08-26T09:33:27.550Z,25.70
2022-08-26T09:36:15.765Z,25.66
2022-08-26T09:39:03.032Z,25.82
2022-08-26T09:42:12.915Z,26.07
2022-08-26T09:45:06.103Z,26.32
2022-08-26T09:47:53.316Z,26.37
2022-08-26T09:50:48.965Z,26.31
2022-08-26T09:53:37.531Z,26.33
2022-08-26T09:56:25.796Z,26.52
2022-08-26T09:59:26.124Z,26.72
2022-08-26T10:02:34.298Z,26.77
2022-08-26T10:05:31.150Z,26.74
2022-08-26T10:08:23.950Z,26.67
2022-08-26T10:11:30.496Z,26.60
2022-08-26T10:14:21.626Z,26.62
2022-08-26T10:17:14.516Z,26.68
2022-08-26T10:20:22.438Z,26.67
2022-08-26T10:23:17.421Z,26.73
2022-08-26T10:26:04.149Z,26.85
2022-08-26T10:28:58.309Z,26.94
2022-08-26T10:31:44.970Z,26.94
2022-08-26T10:34:37.630Z,26.94
2022-08-26T10:37:26.049Z,26.94
2022-08-26T10:40:18.017Z,26.96
2022-08-26T10:43:11.346Z,27.01
2022-08-26T10:46:07.356Z,27.09
2022-08-26T10:48:59.915Z,27.19
2022-08-26T10:51:50.062Z,27.22
2022-08-26T10:54:46.234Z,27.29
2022-08-26T10:57:39.307Z,27.31
2022-08-26T11:00:47.297Z,27.33
2022-08-26T11:03:34.357Z,27.33
2022-08-26T11:06:25.607Z,27.34
2022-08-26T11:09:12.726Z,27.41
2022-08-26T11:12:03.910Z,27.47
2022-08-26T11:14:59.071Z,27.52
2022-08-26T11:17:49.545Z,27.61
2022-08-26T11:20:39.294Z,27.71
2022-08-26T11:23:29.868Z,27.78
2022-08-26T11:26:27.468Z,27.79
2022-08-26T11:29:43.521Z,27.87
2022-08-26T11:32:41.821Z,27.92
2022-08-26T11:35:37.525Z,27.95
2022-08-26T11:38:28.632Z,27.99
2022-08-26T11:41:22.444Z,27.97
2022-08-26T11:44:11.155Z,27.95
2022-08-26T11:47:11.373Z,27.93
2022-08-26T11:50:12.701Z,27.96
2022-08-26T11:53:10.836Z,28.00
2022-08-26T11:55:58.133Z,28.02
2022-08-26T11:58:45.426Z,28.02
2022-08-26T12:01:42.649Z,28.02
2022-08-26T12:04:43.403Z,28.01
2022-08-26T12:07:30.223Z,27.99
2022-08-26T12:10:29.977Z,27.95
2022-08-26T12:13:21.052Z,27.92
2022-08-26T12:16:07.934Z,27.87
2022-08-26T12:18:55.330Z,27.81
2022-08-26T12:21:42.555Z,27.74
2022-08-26T12:24:29.561Z,27.69
2022-08-26T12:27:17.576Z,27.63
2022-08-26T12:30:09.436Z,27.58
2022-08-26T12:33:22.082Z,27.54
2022-08-26T12:36:09.292Z,27.49
2022-08-26T12:38:58.238Z,27.46
2022-08-26T12:41:50.016Z,27.41
2022-08-26T12:44:53.666Z,27.36
2022-08-26T12:47:43.953Z,27.30
2022-08-26T12:50:32.610Z,27.25
2022-08-26T12:53:26.757Z,27.20
2022-08-26T12:56:27.616Z,27.15
2022-08-26T12:59:24.914Z,27.08
2022-08-26T13:02:11.733Z,26.99
2022-08-26T13:05:00.681Z,26.92
2022-08-26T13:08:06.632Z,26.85
2022-08-26T13:11:12.241Z,26.80
2022-08-26T13:14:00.344Z,26.73
2022-08-26T13:16:49.260Z,26.67
2022-08-26T13:19:35.969Z,26.59
2022-08-26T13:22:24.258Z,26.54
2022-08-26T13:25:10.945Z,26.47
2022-08-26T13:27:58.314Z,26.41
2022-08-26T13:30:46.147Z,26.35
2022-08-26T13:33:32.931Z,26.28
2022-08-26T13:36:19.597Z,26.21
2022-08-26T13:39:06.418Z,26.16
2022-08-26T13:41:53.281Z,26.11
2022-08-26T13:44:40.607Z,26.07
2022-08-26T13:47:29.847Z,26.00
2022-08-26T13:50:16.549Z,25.95
2022-08-26T13:53:03.324Z,25.90
2022-08-26T13:55:50.080Z,25.83
2022-08-26T13:58:36.874Z,25.78
2022-08-26T14:01:23.853Z,25.72
2022-08-26T14:04:10.542Z,25.67
2022-08-26T14:07:00.203Z,25.62
2022-08-26T14:09:47.059Z,25.57
2022-08-26T14:12:34.615Z,25.52
2022-08-26T14:15:21.409Z,25.49
2022-08-26T14:18:09.094Z,25.43
2022-08-26T14:20:59.247Z,25.40
2022-08-26T14:23:46.144Z,25.38
2022-08-26T14:26:33.006Z,25.34
2022-08-26T14:29:19.698Z,25.29
2022-08-26T14:32:12.760Z,25.26
2022-08-26T14:34:59.465Z,25.19
2022-08-26T14:37:46.433Z,25.14
2022-08-26T14:40:33.886Z,25.08
2022-08-26T14:43:24.439Z,25.05
2022-08-26T14:46:11.212Z,25.01
2022-08-26T14:49:01.057Z,24.99
2022-08-26T14:51:48.789Z,24.96
2022-08-26T14:54:36.883Z,24.92
2022-08-26T14:57:23.615Z,24.89
2022-08-26T15:00:10.606Z,24.87
2022-08-26T15:02:58.319Z,24.83
2022-08-26T15:05:48.151Z,24.79
2022-08-26T15:08:36.636Z,24.76
2022-08-26T15:11:23.404Z,24.72
2022-08-26T15:14:19.640Z,24.69
2022-08-26T15:17:06.720Z,24.66
2022-08-26T15:19:53.431Z,24.64
2022-08-26T15:22:42.210Z,24.56
2022-08-26T15:25:28.919Z,24.52
2022-08-26T15:28:15.666Z,24.51
2022-08-26T15:31:02.448Z,24.52
2022-08-26T15:33:49.254Z,24.54
2022-08-26T15:36:37.244Z,24.55
2022-08-26T15:39:23.969Z,24.53
2022-08-26T15:42:11.531Z,24.56
2022-08-26T15:44:58.314Z,24.56
2022-08-26T15:48:01.364Z,24.57
2022-08-26T15:50:50.777Z,24.57
2022-08-26T15:53:37.457Z,24.55
2022-08-26T15:56:25.837Z,24.56
2022-08-26T15:59:13.717Z,24.56
2022-08-26T16:02:00.622Z,24.56
2022-08-26T16:04:47.351Z,24.57
2022-08-26T16:07:34.116Z,24.56
2022-08-26T16:10:20.847Z,24.56
2022-08-26T16:13:09.397Z,24.55
2022-08-26T16:15:59.346Z,24.53
2022-08-26T16:18:46.064Z,24.53
2022-08-26T16:21:32.850Z,24.52
2022-08-26T16:24:24.764Z,24.51
2022-08-26T16:27:13.041Z,24.49
2022-08-26T16:29:59.761Z,24.48
2022-08-26T16:32:46.509Z,24.46
2022-08-26T16:35:33.329Z,24.46
2022-08-26T16:38:20.111Z,24.45
2022-08-26T16:41:07.372Z,24.45
2022-08-26T16:43:54.163Z,24.45
2022-08-26T16:46:41.798Z,24.41
2022-08-26T16:49:28.770Z,24.36
2022-08-26T16:52:15.662Z,24.30
2022-08-26T16:55:02.696Z,24.24
2022-08-26T16:57:55.379Z,24.19
2022-08-26T17:00:42.295Z,24.16
2022-08-26T17:03:29.155Z,24.14
2022-08-26T17:06:16.104Z,24.11
2022-08-26T17:09:02.850Z,24.07
2022-08-26T17:11:52.950Z,24.05
2022-08-26T17:14:39.673Z,24.01
2022-08-26T17:17:28.195Z,24.00
2022-08-26T17:20:15.680Z,23.96
2022-08-26T17:23:02.632Z,23.93
2022-08-26T17:25:49.605Z,23.90
2022-08-26T17:28:36.349Z,23.88
2022-08-26T17:31:27.992Z,23.85
2022-08-26T17:34:14.899Z,23.82
2022-08-26T17:40:06.710Z,23.76
2022-08-26T17:42:53.524Z,23.74
2022-08-26T17:45:40.559Z,23.72
2022-08-26T17:48:49.978Z,23.70
2022-08-26T17:51:38.488Z,23.68
2022-08-26T17:54:31.163Z,23.65
2022-08-26T17:57:18.761Z,23.63
2022-08-26T18:00:06.559Z,23.60
2022-08-26T18:02:56.308Z,23.57
2022-08-26T18:05:43.101Z,23.55
2022-08-26T18:08:30.075Z,23.52
2022-08-26T18:11:20.391Z,23.50
2022-08-26T18:14:07.263Z,23.46
2022-08-26T18:16:54.153Z,23.43
2022-08-26T18:19:41.091Z,23.40
2022-08-26T18:22:27.926Z,23.37
2022-08-26T18:25:15.266Z,23.35
2022-08-26T18:28:02.104Z,23.31
2022-08-26T18:30:48.837Z,23.29
2022-08-26T18:33:35.601Z,23.27
2022-08-26T18:36:28.190Z,23.24
2022-08-26T18:39:19.382Z,23.22
2022-08-26T18:42:10.256Z,23.18
2022-08-26T18:44:57.172Z,23.16
2022-08-26T18:47:44.088Z,23.14
2022-08-26T18:50:30.949Z,23.12
2022-08-26T18:53:20.453Z,23.10
2022-08-26T18:56:07.486Z,23.06
2022-08-26T18:58:58.635Z,23.04
2022-08-26T19:01:47.843Z,23.02
2022-08-26T19:04:39.701Z,22.99
2022-08-26T19:07:26.658Z,22.97
2022-08-26T19:10:16.814Z,22.94
2022-08-26T19:13:03.731Z,22.91
2022-08-26T19:15:53.455Z,22.88
2022-08-26T19:18:46.313Z,22.85
2022-08-26T19:21:33.550Z,22.83
2022-08-26T19:24:20.715Z,22.79
2022-08-26T19:27:09.740Z,22.78
2022-08-26T19:29:59.751Z,22.75
2022-08-26T19:32:46.813Z,22.73
2022-08-26T19:35:33.751Z,22.69
2022-08-26T19:38:20.979Z,22.67
2022-08-26T19:41:07.829Z,22.64
2022-08-26T19:43:54.864Z,22.61
2022-08-26T19:46:45.423Z,22.58
2022-08-26T19:49:32.775Z,22.55
2022-08-26T19:52:23.219Z,22.52
2022-08-26T19:55:19.932Z,22.50
2022-08-26T19:58:06.721Z,22.48
2022-08-26T20:00:53.493Z,22.46
2022-08-26T20:03:40.513Z,22.45
2022-08-26T20:06:27.249Z,22.43
2022-08-26T20:09:14.160Z,22.41
2022-08-26T20:12:01.089Z,22.38
2022-08-26T20:14:47.925Z,22.36
2022-08-26T20:17:34.825Z,22.34
2022-08-26T20:20:40.328Z,22.32
2022-08-26T20:23:27.215Z,22.30
2022-08-26T20:26:14.027Z,22.27
2022-08-26T20:29:01.262Z,22.25
2022-08-26T20:31:49.226Z,22.22
2022-08-26T20:34:36.130Z,22.20
2022-08-26T20:37:22.887Z,22.18
2022-08-26T20:40:10.581Z,22.15
2022-08-26T20:42:57.454Z,22.12
2022-08-26T20:45:44.176Z,22.08
2022-08-26T20:48:30.929Z,22.06
2022-08-26T20:51:18.503Z,22.04
2022-08-26T20:54:05.831Z,22.02
2022-08-26T20:56:52.793Z,22.00
2022-08-26T20:59:40.438Z,21.99
2022-08-26T21:02:28.281Z,21.97
2022-08-26T21:05:15.087Z,21.96
2022-08-26T21:08:02.211Z,21.93
2022-08-26T21:10:50.969Z,21.91
2022-08-26T21:14:01.269Z,21.89
2022-08-26T21:16:48.170Z,21.86
2022-08-26T21:19:35.048Z,21.85
2022-08-26T21:22:21.846Z,21.83
2022-08-26T21:25:08.792Z,21.85
2022-08-26T21:27:56.416Z,21.86
2022-08-26T21:30:43.150Z,21.91
2022-08-26T21:33:32.451Z,21.94
2022-08-26T21:36:22.287Z,21.95
2022-08-26T21:39:11.689Z,21.98
2022-08-26T21:41:59.382Z,21.99
2022-08-26T21:44:52.893Z,21.97
2022-08-26T21:47:42.574Z,21.98
2022-08-26T21:50:31.621Z,21.99
2022-08-26T21:53:22.655Z,21.98
2022-08-26T21:56:11.615Z,21.96
2022-08-26T21:58:59.212Z,21.95
2022-08-26T22:01:45.973Z,21.93
2022-08-26T22:04:35.933Z,21.91
2022-08-26T22:07:22.728Z,21.88
2022-08-26T22:10:22.506Z,21.86
2022-08-26T22:13:13.587Z,21.84
2022-08-26T22:16:06.834Z,21.82
2022-08-26T22:19:17.573Z,21.79
2022-08-26T22:22:06.509Z,21.77
2022-08-26T22:24:57.446Z,21.75
2022-08-26T22:27:46.469Z,21.72
2022-08-26T22:30:38.702Z,21.70
2022-08-26T22:33:26.143Z,21.67
2022-08-26T22:36:24.154Z,21.65
2022-08-26T22:39:13.639Z,21.61
2022-08-26T22:42:00.726Z,21.59
2022-08-26T22:44:48.573Z,21.54
2022-08-26T22:47:35.452Z,21.52
2022-08-26T22:50:24.166Z,21.50
2022-08-26T22:53:10.994Z,21.47
2022-08-26T22:56:00.945Z,21.45
2022-08-26T22:58:49.419Z,21.41
2022-08-26T23:01:41.898Z,21.39
2022-08-26T23:04:28.698Z,21.36
2022-08-26T23:07:15.583Z,21.34
2022-08-26T23:10:03.691Z,21.31
2022-08-26T23:12:50.595Z,21.28
2022-08-26T23:15:37.549Z,21.25
2022-08-26T23:18:24.275Z,21.23
2022-08-26T23:21:10.993Z,21.19
2022-08-26T23:23:57.761Z,21.16
2022-08-26T23:26:44.945Z,21.13
2022-08-26T23:29:31.706Z,21.11
2022-08-26T23:32:18.578Z,21.08
2022-08-26T23:35:05.762Z,21.06
2022-08-26T23:37:53.091Z,21.03
2022-08-26T23:40:40.463Z,21.01
2022-08-26T23:43:29.406Z,20.98
2022-08-26T23:46:16.206Z,20.95
2022-08-26T23:49:05.534Z,20.93
2022-08-26T23:52:14.077Z,20.87
2022-08-26T23:55:02.805Z,20.84
2022-08-26T23:57:49.777Z,20.82
